• Join FlightAware (Why Join?)
  • Login
  • US Flag 
01:40PM EDT


 

Airport Tracker/Info


-or-


 

Live Flight TrackerFlight Track Log ✈ UAL4305 ✈ 19-Apr-2013 ✈ KCLL - KIAH

Flight Track Log - Related Links

Times and Time Zones

All times are in EDT time to prevent confusion due to time zone crossing. See the UAL4305 flight status page for this flight to view local times or setup timezone preferences in your user account.

Time Position Orientation Groundspeed Altitude Reporting Facility
EDT Latitude Longitude Course Direction KTS MPH feet Rate Location/Type
08:03AM 30.5964 -96.3631 348° North 144 166 900  Level Houston Center
08:03AM 30.6094 -96.3664 348° North 143 165 1,800 3,060 Climbing Houston Center
08:04AM 30.6558 -96.3708 355° North 169 194 5,000 2,580 Climbing Houston Center
08:05AM 30.6664 -96.3203 76° East 246 283 6,200 1,560 Climbing Houston Center
08:05AM 30.6428 -96.2897 132° Southeast 322 371 6,800 780 Climbing Houston Center
08:06AM 30.6206 -96.2389 117° Southeast 300 345 7,000 180 Climbing Houston Center
08:06AM 30.6064 -96.2067 117° Southeast 296 341 7,000  Level Houston Center
08:07AM 30.5831 -96.1519 116° Southeast 298 343 7,000  Level Houston Center
08:07AM 30.5653 -96.1167 120° Southeast 305 351 7,000  Level Houston Center
08:08AM 30.5425 -96.0622 116° Southeast 309 356 7,000 60 Level Houston Center
08:08AM 30.5239 -96.0244 120° Southeast 312 359 7,100  Climbing Houston Center
08:09AM 30.5081 -95.9872 116° Southeast 305 351 7,000  Descending Houston Center
08:09AM 30.4847 -95.9369 118° Southeast 305 351 7,100 -120 Climbing Houston Center
08:10AM 30.4694 -95.8994 115° Southeast 306 352 6,900  Descending Houston Center
08:10AM 30.4394 -95.8500 125° Southeast 313 360 7,100  Climbing Houston Center
08:11AM 30.4008 -95.8089 137° Southeast 312 359 6,900  Descending Houston Center
08:11AM 30.3769 -95.7822 136° Southeast 311 358 7,100 60 Climbing Houston Center
08:12AM 30.3386 -95.7428 138° Southeast 306 352 7,000  Descending Houston Center
08:12AM 30.3100 -95.7150 140° Southeast 309 356 7,100  Climbing Houston Center
08:13AM 30.2731 -95.6742 136° Southeast 313 360 7,000  Descending Houston Center
08:13AM 30.2475 -95.6475 138° Southeast 319 367 7,100 -120 Climbing Houston Center
08:14AM 30.2072 -95.6053 138° Southeast 319 367 6,900  Descending Houston Center
08:14AM 30.1781 -95.5758 139° Southeast 318 366 7,100  Climbing Houston Center
08:15AM 30.1425 -95.5378 137° Southeast 316 364 6,900  Descending Houston Center
08:15AM 30.1169 -95.5036 131° Southeast 302 348 7,100 60 Climbing Houston Center
08:16AM 30.1067 -95.4544 104° East 303 349 7,000  Descending Houston Center
08:16AM 30.1064 -95.4106 90° East 297 342 7,100 -120 Climbing Houston Center
08:17AM 30.1067 -95.3594 90° East 298 343 6,900 -540 Descending Houston Center
08:17AM 30.1061 -95.3164 91° East 295 339 6,600 -900 Descending Houston Center
08:18AM 30.1058 -95.2664 90° East 291 335 6,000 -540 Descending Houston Center
08:18AM 30.1061 -95.2247 90° East 285 328 6,100 -240 Climbing Houston Center
08:19AM 30.1050 -95.1747 91° East 285 328 5,800 -600 Descending Houston Center
08:19AM 30.0978 -95.1339 102° East 280 322 5,500 -840 Descending Houston Center
08:20AM 30.0897 -95.0856 101° East 282 325 5,000 -420 Descending Houston Center
08:20AM 30.0833 -95.0464 101° East 278 320 5,100  Climbing Houston Center
08:21AM 30.0569 -95.0092 129° Southeast 287 330 5,000 -120 Descending Houston Center
08:21AM 30.0144 -95.0067 177° South 287 330 5,000 -120 Level Houston Center
08:22AM 29.9953 -95.0325 229° Southwest 254 292 4,900 -600 Descending Houston Center
08:22AM 29.9908 -95.0675 262° West 199 229 4,400 -1,140 Descending Houston Center
08:23AM 29.9939 -95.1092 275° West 203 234 3,800 -840 Descending Houston Center
08:23AM 29.9925 -95.1300 266° West 181 208 3,600 -900 Descending Houston Center
08:24AM 29.9936 -95.1678 272° West 190 219 2,900 -1,020 Descending Houston Center
08:24AM 29.9936 -95.1878 270° West 168 193 2,600 -1,020 Descending Houston Center
08:25AM 29.9939 -95.2189 271° West 175 201 1,900 -900 Descending Houston Center
08:25AM 29.9939 -95.2358 270° West 153 176 1,700 -720 Descending Houston Center
08:26AM 29.9942 -95.2636 271° West 158 182 1,200 -720 Descending Houston Center
08:26AM 29.9936 -95.2794 268° West 112 129 1,000 -720 Descending Houston Center
08:27AM 29.9936 -95.3036 270° West 141 162 500 -480 Descending Houston Center
08:28AM 29.9936 -95.3428 270° West 137 158 200 -300 Descending Houston Center